| Date | Time | Temp. (oF) | Dew Point (oF) | Rel. Hum. (%) | Press. (in.) | Wind Dir. | Wind Speed (mph) | Hourly Rainfall (in.) |
|
|---|---|---|---|---|---|---|---|---|---|
| 1 | 06/01 | 00:00 | 66 | 66 | 100 | 29.90 | NE | 0 | 0.00 |
| 2 | 05/31 | 23:00 | 67 | 67 | 100 | 29.90 | ENE | 0 | 0.00 |
| 3 | 05/31 | 22:00 | 67 | 66 | 99 | 29.90 | NNE | 0 | 0.00 |
| 4 | 05/31 | 21:00 | 67 | 66 | 98 | 29.88 | SW | 0 | 0.00 |
| 5 | 05/31 | 20:00 | 67 | 66 | 97 | 29.89 | SW | 0 | 0.31 |
| 6 | 05/31 | 19:00 | 67 | 65 | 96 | 29.96 | W | 5 | 0.65 |
| 7 | 05/31 | 18:00 | 69 | 66 | 92 | 29.91 | ENE | 12 | 0.95 |
| 8 | 05/31 | 17:00 | 74 | 67 | 81 | 29.88 | SE | 7 | 0.27 |
| 9 | 05/31 | 16:00 | 87 | 73 | 65 | 29.87 | SE | 7 | 0.00 |
| 10 | 05/31 | 15:00 | 90 | 75 | 63 | 29.89 | SSW | 7 | 0.00 |
| 11 | 05/31 | 14:00 | 86 | 72 | 64 | 29.91 | SSW | 2 | 0.00 |
| 12 | 05/31 | 13:00 | 89 | 72 | 58 | 29.94 | SW | 5 | 0.00 |
| 13 | 05/31 | 12:00 | 88 | 73 | 62 | 29.95 | SW | 4 | 0.00 |
| 14 | 05/31 | 11:00 | 85 | 71 | 65 | 29.97 | SW | 5 | 0.00 |
| 15 | 05/31 | 10:00 | 82 | 70 | 68 | 29.98 | S | 4 | 0.00 |
| 16 | 05/31 | 09:00 | 78 | 69 | 76 | 29.99 | S | 1 | 0.00 |
| 17 | 05/31 | 08:00 | 69 | 65 | 90 | 29.99 | SSE | 1 | 0.00 |
| 18 | 05/31 | 07:00 | 64 | 62 | 96 | 29.99 | N | 0 | 0.00 |
| 19 | 05/31 | 06:00 | 63 | 61 | 95 | 29.98 | NNE | 0 | 0.00 |
| 20 | 05/31 | 05:00 | 63 | 60 | 93 | 29.97 | N | 0 | 0.00 |
| 21 | 05/31 | 04:00 | 64 | 61 | 90 | 29.96 | W | 0 | 0.00 |
| 22 | 05/31 | 03:00 | 65 | 61 | 88 | 29.96 | WSW | 0 | 0.00 |
| 23 | 05/31 | 02:00 | 66 | 61 | 85 | 29.96 | WSW | 0 | 0.00 |
| 24 | 05/31 | 01:00 | 68 | 61 | 81 | 29.96 | WSW | 0 | 0.00 |